Tabella Stazioni Meteo Lazio

Provincia di Frosinone
ID Località Altitudine Data Temp (°C) Temp Min (°C) Temp Max (°C) Hum (%) Pressure (hPa) Wind (Km/h) Wind Dir Wind Gust (Km/h) Wind Gust Max (Km/h) Rain (mm) Dewpoint (°C)
ILAZIOCA7 Stazione meteo Campoli Appennino – Via Treo 499 m s.l.m. 2018-10-22 07:11:00 10.9 7.6 10.9 62 1011.0 14.0 East 0.0 0.0 0.00 4.0
ILAZIOPI2 Stazione meteo Pico – Colleponte 114 m s.l.m. 2018-10-22 07:04:49 10.7 10.0 12.1 82 1010.8 8.0 SSO 6.4 22.5 0.80 7.8
INOWUND02 Stazione meteo Alvito – Colle Santa Lucia 465 m s.l.m. 2018-10-22 07:29:55 10.7 8.2 11.0 60 1003.3 13.3 NE 20.9 30.6 0.30 3.3
ILAZIOPO8 Stazione meteo Pontecorvo – Via Babuino 94 m s.l.m. 2018-10-22 07:00:02 11.2 10.9 11.9 77 1011.0 4.8 SSE 1.6 41.8 2.40 7.3
Provincia di Latina
ID Località Altitudine Data Temp (°C) Temp Min (°C) Temp Max (°C) Hum (%) Pressure (hPa) Wind (Km/h) Wind Dir Wind Gust (Km/h) Wind Gust Max (Km/h) Rain (mm) Dewpoint (°C)
ILAZIOCI9 Stazione meteo Cisterna – Centro Storico 81 m s.l.m. 2018-10-22 07:30:07 11.6 11.2 13.0 79 1010.8 3.6 N 5.0 33.1 1.80 8.1
ICISTERN7 Stazione meteo Cisterna – Indinvest LT 42 m s.l.m. 2018-10-22 07:30:07 11.8 11.2 13.2 84 1011.3 4.8 WNW 4.8 17.7 4.40 9.2
ILAZIOLA18 Stazione meteo Cisterna – San Valentino 93 m s.l.m. 2018-10-22 07:30:07 11.3 11.0 13.1 85 999.1 8.6 NW 13.3 35.6 3.60 8.9
ILATINA13 Stazione meteo Latina – Borgo Montello 31 m s.l.m. 2018-09-23 21:50:05 26.3 16.9 31.8 67 1019.0 9.7 SW 11.2 23.4 0.00 19.7
Provincia di Roma
ID Località Altitudine Data Temp (°C) Temp Min (°C) Temp Max (°C) Hum (%) Pressure (hPa) Wind (Km/h) Wind Dir Wind Gust (Km/h) Wind Gust Max (Km/h) Rain (mm) Dewpoint (°C)
IROCCADI23 Stazione meteo Rocca di Papa – Pratoni del Vivaro 528 m s.l.m. 2018-10-22 07:23:36 5.8 5.8 9.1 99 1011.0 0.0 South 0.0 9.4 3.00 6.0
IVELLETR14 Stazione meteo Velletri – Crocefissi 227m 227 m s.l.m. 2018-10-22 07:19:22 9.4 9.4 11.8 99 1011.0 0.4 WSW 1.8 11.2 2.00 9.0
ILAZIOVE10 Stazione meteo Velletri – Crocefissi 259m 259 m s.l.m. 2018-10-22 07:30:06 10.1 9.8 12.7 87 1013.0 5.0 N 8.6 35.6 1.20 8.0
IROMAVEL2 Stazione meteo Velletri – 5 Archi 188 m s.l.m. 2018-10-22 07:29:23 11.0 10.6 13.1 81 1010.6 3.9 N 3.6 34.2 2.50 7.9
IVELLETR20 Stazione meteo Velletri – Centro 380 m s.l.m. 2018-10-22 07:30:07 10.8 9.5 12.0 70 1009.5 12.2 N 19.4 72.4 0.60 5.5
IVELLETR22 Stazione meteo Velletri – San Clemente 335 m s.l.m. 2018-10-22 07:30:06 11.6 10.3 12.8 73 1011.1 9.7 NE 12.2 49.0 0.60 6.9
IVELLETR18 Stazione meteo Velletri – Fontana Fiume 512 m s.l.m. 2018-10-22 07:27:00 8.8 8.6 11.6 81 1011.0 0.0 North 3.5 27.0 1.00 6.0
ILAZIOLA23 Stazione meteo Lariano – Centro 370 m s.l.m. 2018-10-22 07:10:05 10.2 9.9 11.8 79 1011.0 5.8 NNW 7.9 19.8 9.00 7.0
ILAZIOMA6 Stazione meteo Artena – Macere 345 m s.l.m. 2018-10-22 07:19:43 8.5 8.5 11.0 96 1011.0 1.1 South 3.5 15.8 2.00 8.0
ILAZIOAR6 Stazione meteo Ardea – Via Pavia 20 m s.l.m. 2018-10-22 07:28:26 11.3 11.3 13.6 91 1009.2 3.0 NE 4.0 11.0 4.50 9.9
ILAZIOPO4 Stazione meteo Pomezia – Via Federico Fellini 78 m s.l.m. 2018-09-30 23:59:10 19.1 16.2 24.3 84 1012.8 0.0 E 0.0 12.9 0.00 16.3
INOWUND03 Stazione meteo Rocca di Papa – Monte Faete 970 m s.l.m. 2018-08-28 11:15:00 20.7 20.7 20.7 64 1017.1 2.5 SW 3.6 3.6 0.00 13.6
ILAZIOCE8 Stazione meteo Cerveteri – Madonna dei Canneti 106 m s.l.m. 2018-10-22 06:59:52 11.7 10.0 13.8 34 1012.0 32.3 NNE 44.3 56.2 0.00 -4.0
Provincia di Viterbo
ID Località Altitudine Data Temp (°C) Temp Min (°C) Temp Max (°C) Hum (%) Pressure (hPa) Wind (Km/h) Wind Dir Wind Gust (Km/h) Wind Gust Max (Km/h) Rain (mm) Dewpoint (°C)
INEPI3 Stazione meteo Nepi – Via Umiltà 216 m s.l.m. 2018-10-22 07:14:54 10.4 8.7 10.9 76 1014.0 9.3 NNE 11.1 27.7 1.00 6.0
ILAZIOCI6 Stazione meteo Civita Castellana – Via del Forte 135 m s.l.m. 2018-09-30 23:55:01 16.1 14.4 27.4 80 1014.2 1.6 248 2.5 13.8 0.00 12.6
IVITERBO7 Stazione meteo Marta – Via Laertina 320 m s.l.m. 2018-10-18 11:04:53 17.2 17.2 18.2 88 1012.7 17.3 NNE 17.3 24.1 0.00 15.2
ILAZIOVI8 Stazione meteo San Lorenzo Nuovo – Piazza Europa 519 m s.l.m. 2018-10-22 07:04:26 8.4 8.1 8.6 77 1012.3 23.4 N 23.4 45.0 0.00 4.6